Time;durP1;ratioP1;P1;durP2;ratioP2;P2;SDS_P1;SDS_P2;PMS_P1;PMS_P2;Temp;Humidity;BMP_temperature;BMP_pressure;BME280_temperature;BME280_humidity;BME280_pressure;Samples;Min_cycle;Max_cycle;Signal;HPM_P1;HPM_P2
2022/04/21 00:00:45;;;;;;;0.10;0.10;;;7.30;99.90;;;;;;5091978;28;20048;-78
2022/04/21 00:03:12;;;;;;;0.10;0.10;;;7.40;99.90;;;;;;5075941;28;20445;-81
2022/04/21 00:05:38;;;;;;;0.10;0.10;;;7.30;99.90;;;;;;5059146;28;20059;-78
2022/04/21 00:08:05;;;;;;;0.20;0.20;;;7.30;99.90;;;;;;5075849;28;20037;-78
2022/04/21 00:10:32;;;;;;;0.10;0.10;;;7.30;99.90;;;;;;5075323;28;20048;-78
2022/04/21 00:12:59;;;;;;;0.10;0.10;;;7.20;99.90;;;;;;5055887;28;20043;-78
2022/04/21 00:15:27;;;;;;;0.10;0.10;;;7.20;99.90;;;;;;5088714;28;20490;-78
2022/04/21 00:17:54;;;;;;;0.70;0.30;;;7.20;99.90;;;;;;5105253;28;20040;-78
2022/04/21 00:20:20;;;;;;;0.17;0.17;;;7.40;99.90;;;;;;5088343;28;20044;-82
2022/04/21 00:25:32;;;;;;;0.10;0.10;;;7.20;99.90;;;;;;5087929;28;20044;-78
2022/04/21 00:27:59;;;;;;;0.10;0.10;;;7.20;99.90;;;;;;5071853;28;20036;-82
2022/04/21 00:30:26;;;;;;;0.10;0.10;;;7.10;99.90;;;;;;5071725;28;20449;-78
2022/04/21 00:32:53;;;;;;;0.10;0.10;;;7.20;99.90;;;;;;5074654;28;20040;-78
2022/04/21 00:35:20;;;;;;;0.10;0.10;;;7.10;99.90;;;;;;5091732;28;20051;-78
2022/04/21 00:37:48;;;;;;;0.10;0.10;;;7.00;99.90;;;;;;5074817;28;20036;-78
2022/04/21 00:40:16;;;;;;;0.10;0.10;;;7.00;99.90;;;;;;5090995;28;20398;-78
2022/04/21 00:42:44;;;;;;;0.20;0.20;;;6.90;99.90;;;;;;5058207;28;20040;-78
2022/04/21 00:45:12;;;;;;;0.20;0.20;;;6.90;99.90;;;;;;5091273;28;20055;-78
2022/04/21 00:47:45;;;;;;;0.10;0.10;;;6.90;99.90;;;;;;5090924;28;20052;-81
2022/04/21 00:50:24;;;;;;;0.10;0.10;;;6.80;99.90;;;;;;5091770;28;20100;-78
2022/04/21 00:52:53;;;;;;;0.10;0.10;;;6.80;99.90;;;;;;5091051;28;20405;-81
2022/04/21 00:55:21;;;;;;;0.20;0.20;;;6.80;99.90;;;;;;5090871;28;20167;-78
2022/04/21 00:57:50;;;;;;;0.20;0.20;;;6.80;99.90;;;;;;5091158;28;20051;-78
2022/04/21 01:00:17;;;;;;;0.15;0.15;;;6.70;99.90;;;;;;5091150;28;20040;-78
2022/04/21 01:02:49;;;;;;;0.10;0.10;;;6.80;99.90;;;;;;5058044;28;20086;-81
2022/04/21 01:05:18;;;;;;;0.10;0.10;;;6.70;99.90;;;;;;5091040;28;20036;-81
2022/04/21 01:07:45;;;;;;;0.10;0.10;;;7.30;99.90;;;;;;5090704;28;20078;-80
2022/04/21 01:10:13;;;;;;;0.10;0.10;;;6.70;99.90;;;;;;5074800;28;20050;-82
2022/04/21 01:12:42;;;;;;;0.10;0.10;;;6.80;99.90;;;;;;5074187;28;20041;-77
2022/04/21 01:15:10;;;;;;;0.10;0.10;;;6.80;99.90;;;;;;5091196;28;20032;-78
2022/04/21 01:17:38;;;;;;;0.10;0.10;;;6.80;99.90;;;;;;5071963;28;20435;-81
2022/04/21 01:20:06;;;;;;;0.20;0.20;;;6.80;99.90;;;;;;5097854;28;20109;-78
2022/04/21 01:22:33;;;;;;;0.28;0.28;;;6.80;99.90;;;;;;5090716;28;20378;-82
2022/04/21 01:25:00;;;;;;;0.10;0.10;;;6.90;99.90;;;;;;5073930;28;20124;-78
2022/04/21 01:27:31;;;;;;;0.20;0.20;;;6.90;99.90;;;;;;5073766;28;20094;-82
2022/04/21 01:29:58;;;;;;;0.25;0.20;;;6.90;99.90;;;;;;5107071;28;20041;-78
2022/04/21 01:32:25;;;;;;;0.20;0.20;;;7.00;99.90;;;;;;5090450;28;20037;-79
2022/04/21 01:34:51;;;;;;;0.10;0.10;;;7.00;99.90;;;;;;5090163;28;20097;-82
2022/04/21 01:42:49;;;;;;;0.20;0.20;;;7.10;99.90;;;;;;5106561;28;20483;-78
2022/04/21 01:45:16;;;;;;;0.10;0.10;;;7.00;99.90;;;;;;5106673;28;20119;-82
2022/04/21 01:47:43;;;;;;;0.10;0.10;;;7.00;99.90;;;;;;5090107;28;20052;-78
2022/04/21 01:50:09;;;;;;;0.10;0.10;;;7.00;99.90;;;;;;5090483;28;20044;-79
2022/04/21 01:52:37;;;;;;;0.10;0.10;;;7.00;99.90;;;;;;5090075;28;20080;-82
2022/04/21 01:55:05;;;;;;;0.10;0.10;;;7.00;99.90;;;;;;5106747;28;20044;-78
2022/04/21 01:57:33;;;;;;;0.10;0.10;;;6.90;99.90;;;;;;5106770;28;20044;-82
2022/04/21 02:00:00;;;;;;;0.10;0.10;;;6.90;99.90;;;;;;5106417;28;20094;-81
2022/04/21 02:02:26;;;;;;;0.10;0.10;;;7.00;99.90;;;;;;5090291;28;20465;-78
2022/04/21 02:04:53;;;;;;;0.10;0.10;;;6.90;99.90;;;;;;5073208;28;20038;-78
2022/04/21 02:07:20;;;;;;;0.10;0.10;;;6.90;99.90;;;;;;5072527;28;20066;-78
2022/04/21 02:09:47;;;;;;;0.10;0.10;;;6.90;99.90;;;;;;5072857;28;20075;-78
2022/04/21 02:12:14;;;;;;;0.10;0.10;;;6.80;99.90;;;;;;5069522;28;20041;-78
2022/04/21 02:14:41;;;;;;;0.17;0.17;;;6.80;99.90;;;;;;5086018;28;20037;-81
2022/04/21 02:17:08;;;;;;;0.17;0.17;;;6.70;99.90;;;;;;5053278;28;20044;-78
2022/04/21 02:19:34;;;;;;;0.10;0.10;;;6.60;99.90;;;;;;5102871;28;20044;-78
2022/04/21 02:22:01;;;;;;;0.20;0.20;;;6.60;99.90;;;;;;5099754;28;20040;-82
2022/04/21 02:24:28;;;;;;;0.20;0.20;;;6.50;99.90;;;;;;5073169;28;20127;-82
2022/04/21 02:26:54;;;;;;;0.10;0.10;;;6.40;99.90;;;;;;5073001;28;20498;-82
2022/04/21 02:29:24;;;;;;;0.80;0.60;;;6.40;99.90;;;;;;5072909;28;20405;-78
2022/04/21 02:31:51;;;;;;;0.10;0.10;;;6.40;99.90;;;;;;5072423;28;20508;-82
2022/04/21 02:34:18;;;;;;;0.10;0.10;;;6.40;99.90;;;;;;5056756;28;20040;-81
2022/04/21 02:36:44;;;;;;;0.30;0.30;;;6.30;99.90;;;;;;5088979;28;20607;-81
2022/04/21 02:39:11;;;;;;;0.20;0.20;;;6.30;99.90;;;;;;5056330;28;20106;-78
2022/04/21 02:41:38;;;;;;;0.10;0.10;;;6.20;99.90;;;;;;5055843;28;20048;-82
2022/04/21 02:44:04;;;;;;;0.10;0.10;;;6.20;99.90;;;;;;5089144;28;20178;-79
2022/04/21 02:46:33;;;;;;;0.10;0.10;;;6.20;99.90;;;;;;5072683;28;20079;-81
2022/04/21 02:49:01;;;;;;;0.10;0.10;;;6.10;99.90;;;;;;5089093;28;20040;-78
2022/04/21 02:51:32;;;;;;;0.10;0.10;;;6.10;99.90;;;;;;5072620;28;20040;-81
2022/04/21 02:59:29;;;;;;;0.20;0.20;;;6.10;99.90;;;;;;5091514;28;20409;-82
2022/04/21 03:01:57;;;;;;;0.22;0.22;;;6.00;99.90;;;;;;5105457;28;20064;-78
2022/04/21 03:04:24;;;;;;;0.10;0.10;;;6.00;99.90;;;;;;5089537;28;20128;-78
2022/04/21 03:06:50;;;;;;;0.20;0.20;;;5.90;99.90;;;;;;5088766;28;20079;-81
2022/04/21 03:09:17;;;;;;;0.20;0.20;;;6.00;99.90;;;;;;5105677;28;20036;-78
2022/04/21 03:11:44;;;;;;;0.20;0.20;;;5.80;99.90;;;;;;5072419;28;20045;-78
2022/04/21 03:14:10;;;;;;;0.10;0.10;;;5.80;99.90;;;;;;5088797;28;20098;-78
2022/04/21 03:16:37;;;;;;;0.10;0.10;;;5.80;99.90;;;;;;5089372;28;20036;-82
2022/04/21 03:19:04;;;;;;;0.20;0.20;;;5.70;99.90;;;;;;5057241;28;20143;-81
2022/04/21 03:24:21;;;;;;;0.10;0.10;;;6.10;99.90;;;;;;5081297;28;20094;-83
2022/04/21 03:26:49;;;;;;;0.20;0.20;;;5.70;99.90;;;;;;5077538;28;20044;-82
2022/04/21 03:29:16;;;;;;;0.20;0.20;;;5.70;99.90;;;;;;5109933;28;20123;-78
2022/04/21 03:31:43;;;;;;;0.20;0.20;;;5.70;99.90;;;;;;5109486;28;20501;-78
2022/04/21 03:34:15;;;;;;;0.20;0.20;;;5.70;99.90;;;;;;5092508;28;20076;-78
2022/04/21 03:36:48;;;;;;;0.20;0.20;;;5.60;99.90;;;;;;5092509;28;20049;-82
2022/04/21 03:39:20;;;;;;;0.10;0.10;;;5.60;99.90;;;;;;5092570;28;20040;-78
2022/04/21 03:41:53;;;;;;;0.20;0.20;;;5.50;99.90;;;;;;5092556;28;20036;-82
2022/04/21 03:44:21;;;;;;;0.10;0.10;;;5.50;99.90;;;;;;5061093;28;20033;-78
2022/04/21 03:46:48;;;;;;;0.20;0.20;;;5.80;99.90;;;;;;5092515;28;20609;-78
2022/04/21 03:49:15;;;;;;;0.20;0.20;;;5.40;99.90;;;;;;5092412;28;20079;-78
2022/04/21 03:51:42;;;;;;;0.15;0.15;;;5.70;99.90;;;;;;5076137;28;20040;-82
2022/04/21 03:54:08;;;;;;;0.15;0.15;;;5.50;99.90;;;;;;5092367;28;20066;-82
2022/04/21 03:56:35;;;;;;;0.20;0.20;;;5.40;99.90;;;;;;5108849;28;20409;-82
2022/04/21 03:59:02;;;;;;;0.20;0.20;;;5.30;99.90;;;;;;5091930;28;20055;-78
2022/04/21 04:01:28;;;;;;;0.20;0.20;;;5.40;99.90;;;;;;5075844;28;20052;-82
2022/04/21 04:03:55;;;;;;;0.20;0.20;;;5.30;99.90;;;;;;5091539;28;20036;-78
2022/04/21 04:11:52;;;;;;;0.10;0.10;;;5.10;99.90;;;;;;5094084;28;20068;-81
2022/04/21 04:14:20;;;;;;;0.20;0.20;;;5.10;99.90;;;;;;5091037;28;20045;-78
2022/04/21 04:16:46;;;;;;;0.20;0.20;;;5.10;99.90;;;;;;5091729;28;20125;-81
2022/04/21 04:19:13;;;;;;;0.20;0.20;;;5.00;99.90;;;;;;5108377;28;20086;-78
2022/04/21 04:21:40;;;;;;;0.10;0.10;;;4.90;99.90;;;;;;5108486;28;20040;-82
2022/04/21 04:24:06;;;;;;;0.20;0.20;;;4.90;99.90;;;;;;5091693;28;20409;-78
2022/04/21 04:26:33;;;;;;;0.20;0.20;;;4.90;99.90;;;;;;5091511;28;20046;-82
2022/04/21 04:29:02;;;;;;;0.20;0.20;;;4.80;99.90;;;;;;5074838;28;20041;-78
2022/04/21 04:31:30;;;;;;;0.20;0.20;;;4.80;99.90;;;;;;5107259;28;20045;-82
2022/04/21 04:33:57;;;;;;;0.20;0.20;;;4.80;99.90;;;;;;5091730;28;20040;-78
2022/04/21 04:36:23;;;;;;;0.15;0.15;;;4.90;99.90;;;;;;5091720;28;20487;-78
2022/04/21 04:38:50;;;;;;;0.20;0.20;;;4.70;99.90;;;;;;5074869;28;20051;-77
2022/04/21 04:44:02;;;;;;;0.20;0.20;;;4.70;99.90;;;;;;5093868;28;20131;-78
2022/04/21 04:46:34;;;;;;;0.13;0.13;;;4.70;99.90;;;;;;5091335;28;20479;-78
2022/04/21 04:49:09;;;;;;;0.20;0.20;;;4.70;99.90;;;;;;5075508;28;20066;-81
2022/04/21 04:51:41;;;;;;;0.22;0.22;;;4.70;99.90;;;;;;5091176;28;20048;-82
2022/04/21 04:54:12;;;;;;;0.20;0.20;;;4.70;99.90;;;;;;5091104;28;20040;-81
2022/04/21 04:56:40;;;;;;;0.10;0.10;;;4.80;99.90;;;;;;5108057;28;20581;-82
2022/04/21 04:59:07;;;;;;;0.20;0.20;;;4.80;99.90;;;;;;5091084;28;20037;-81
2022/04/21 05:01:42;;;;;;;0.20;0.20;;;5.00;99.90;;;;;;5074412;28;20069;-82
2022/04/21 05:04:10;;;;;;;0.20;0.20;;;4.90;99.90;;;;;;5107685;28;20036;-78
2022/04/21 05:06:43;;;;;;;0.10;0.10;;;5.20;99.90;;;;;;5107528;28;20033;-78
2022/04/21 05:09:15;;;;;;;0.20;0.20;;;5.10;99.90;;;;;;5107663;28;20082;-81
2022/04/21 05:11:44;;;;;;;0.20;0.20;;;5.10;99.90;;;;;;5107550;28;20421;-82
2022/04/21 05:14:10;;;;;;;0.20;0.20;;;5.20;99.90;;;;;;5107276;28;20401;-82
2022/04/21 05:16:39;;;;;;;0.10;0.10;;;5.30;99.90;;;;;;5090840;28;20048;-78
2022/04/21 05:19:11;;;;;;;0.20;0.20;;;5.30;99.90;;;;;;5090493;28;20542;-82
2022/04/21 05:21:38;;;;;;;0.20;0.20;;;5.40;99.90;;;;;;5107095;28;20413;-78
2022/04/21 05:24:06;;;;;;;0.10;0.10;;;5.40;99.90;;;;;;5067951;28;20040;-82
2022/04/21 05:26:33;;;;;;;0.20;0.20;;;5.50;99.90;;;;;;5090649;28;20037;-78
2022/04/21 05:31:54;;;;;;;0.20;0.20;;;5.70;99.90;;;;;;5088073;28;20109;-78
2022/04/21 05:34:22;;;;;;;0.20;0.20;;;5.70;99.90;;;;;;5085364;28;20093;-82
2022/04/21 05:36:49;;;;;;;0.20;0.20;;;5.80;99.90;;;;;;5089971;28;20390;-82
2022/04/21 05:39:16;;;;;;;0.10;0.10;;;5.90;99.90;;;;;;5064936;28;20043;-78
2022/04/21 05:41:44;;;;;;;0.20;0.20;;;5.90;99.90;;;;;;5084364;28;20075;-78
2022/04/21 05:44:11;;;;;;;0.20;0.20;;;6.00;99.90;;;;;;5090413;28;20040;-78
2022/04/21 05:46:38;;;;;;;0.20;0.20;;;6.10;99.90;;;;;;5063794;28;20379;-79
2022/04/21 05:49:05;;;;;;;0.20;0.20;;;6.20;99.90;;;;;;5092684;28;20099;-83
2022/04/21 05:51:32;;;;;;;0.20;0.20;;;6.20;99.90;;;;;;5100600;28;20120;-79
2022/04/21 05:54:02;;;;;;;0.20;0.20;;;6.30;99.90;;;;;;5097405;28;20501;-81
2022/04/21 05:56:28;;;;;;;0.10;0.10;;;6.40;99.90;;;;;;5081619;28;20040;-78
2022/04/21 05:58:55;;;;;;;0.10;0.10;;;6.50;99.90;;;;;;5073108;28;20041;-82
2022/04/21 06:01:23;;;;;;;0.20;0.20;;;6.60;99.90;;;;;;5089698;28;20200;-78
2022/04/21 06:03:52;;;;;;;0.20;0.20;;;6.70;99.90;;;;;;5071955;28;20115;-82
2022/04/21 06:06:19;;;;;;;0.10;0.10;;;6.70;99.90;;;;;;5069736;28;20635;-82
2022/04/21 06:08:45;;;;;;;0.20;0.20;;;6.90;99.90;;;;;;5080985;28;20044;-81
2022/04/21 06:11:13;;;;;;;0.20;0.20;;;6.90;99.90;;;;;;5069080;28;20436;-79
2022/04/21 06:13:41;;;;;;;0.20;0.20;;;7.00;99.90;;;;;;5053502;28;20045;-82
2022/04/21 06:16:08;;;;;;;0.10;0.10;;;7.10;99.90;;;;;;5070014;28;20036;-82
2022/04/21 06:18:36;;;;;;;0.20;0.20;;;7.30;99.90;;;;;;5086380;28;20044;-83
2022/04/21 06:21:04;;;;;;;0.10;0.10;;;7.30;99.90;;;;;;5106387;28;20527;-79
2022/04/21 06:23:31;;;;;;;0.10;0.10;;;7.40;99.90;;;;;;5094203;28;20119;-80
2022/04/21 06:25:59;;;;;;;0.10;0.10;;;7.50;99.90;;;;;;5080944;28;20071;-82
2022/04/21 06:28:26;;;;;;;0.20;0.20;;;7.50;99.90;;;;;;5091891;28;20040;-79
2022/04/21 06:30:53;;;;;;;0.10;0.10;;;7.60;99.90;;;;;;5105822;28;20606;-82
2022/04/21 06:33:20;;;;;;;0.10;0.10;;;7.70;99.90;;;;;;5107430;28;20139;-83
2022/04/21 06:35:47;;;;;;;0.10;0.10;;;7.80;99.90;;;;;;5092296;28;20042;-82
2022/04/21 06:38:14;;;;;;;0.10;0.10;;;7.90;99.90;;;;;;5103859;28;20047;-82
2022/04/21 06:40:41;;;;;;;0.10;0.10;;;8.00;99.90;;;;;;5108260;28;20060;-82
2022/04/21 06:48:40;;;;;;;0.10;0.10;;;8.30;99.90;;;;;;5091380;28;20405;-80
2022/04/21 06:51:07;;;;;;;0.20;0.20;;;8.40;99.90;;;;;;5070410;28;20028;-83
2022/04/21 06:53:34;;;;;;;0.10;0.10;;;8.50;99.90;;;;;;5072253;28;20170;-79
2022/04/21 06:56:04;;;;;;;0.10;0.10;;;8.70;99.90;;;;;;5072844;28;20047;-83
2022/04/21 06:58:31;;;;;;;0.10;0.10;;;8.90;99.90;;;;;;5089131;28;20043;-80
2022/04/21 07:00:58;;;;;;;0.10;0.10;;;9.00;99.90;;;;;;5072661;28;20036;-82
2022/04/21 07:03:25;;;;;;;0.10;0.10;;;9.10;99.90;;;;;;5068774;28;20056;-80
2022/04/21 07:05:55;;;;;;;0.17;0.17;;;9.20;99.90;;;;;;5058152;28;20123;-80
2022/04/21 07:08:22;;;;;;;0.10;0.10;;;9.40;99.90;;;;;;5055327;28;20409;-82
2022/04/21 07:10:49;;;;;;;0.10;0.10;;;9.50;99.90;;;;;;5101505;28;20113;-80
2022/04/21 07:13:15;;;;;;;0.10;0.10;;;9.70;99.90;;;;;;5072602;28;20048;-80
2022/04/21 07:15:42;;;;;;;0.20;0.20;;;9.80;99.90;;;;;;5074226;28;20040;-80
2022/04/21 07:18:10;;;;;;;0.10;0.10;;;9.90;99.90;;;;;;5060756;28;20043;-80
2022/04/21 07:20:36;;;;;;;0.10;0.10;;;10.00;99.90;;;;;;5069532;28;20047;-80
2022/04/21 07:23:04;;;;;;;0.20;0.20;;;10.20;99.90;;;;;;5066526;28;20033;-80
2022/04/21 07:25:30;;;;;;;0.10;0.10;;;10.30;99.90;;;;;;5105505;28;20075;-80
2022/04/21 07:27:57;;;;;;;0.15;0.15;;;10.40;99.90;;;;;;5066886;28;20068;-80
2022/04/21 07:30:24;;;;;;;0.10;0.10;;;10.60;99.90;;;;;;5074769;28;20036;-83
2022/04/21 07:32:50;;;;;;;0.10;0.10;;;10.70;99.90;;;;;;5071099;28;20051;-83
2022/04/21 07:35:18;;;;;;;0.10;0.10;;;10.80;99.90;;;;;;5088924;28;20044;-84
2022/04/21 07:37:46;;;;;;;0.10;0.10;;;10.90;99.90;;;;;;5085112;28;20045;-80
2022/04/21 07:40:13;;;;;;;0.10;0.10;;;11.00;99.90;;;;;;5052056;28;20056;-80
2022/04/21 07:42:40;;;;;;;0.10;0.10;;;11.10;99.90;;;;;;5068649;28;20041;-83
2022/04/21 07:45:13;;;;;;;0.13;0.13;;;11.20;99.90;;;;;;5054008;28;20578;-81
2022/04/21 07:47:40;;;;;;;0.10;0.10;;;11.40;99.90;;;;;;5052231;28;20037;-81
2022/04/21 07:50:07;;;;;;;0.10;0.10;;;11.50;99.90;;;;;;5052581;28;20041;-81
2022/04/21 07:55:24;;;;;;;0.10;0.10;;;11.80;99.90;;;;;;5091511;28;20043;-83
2022/04/21 07:57:56;;;;;;;0.00;0.00;;;12.00;99.90;;;;;;5053658;28;20116;-83
2022/04/21 08:00:23;;;;;;;0.10;0.10;;;12.10;99.90;;;;;;5084826;28;20053;-81
2022/04/21 08:02:50;;;;;;;0.10;0.10;;;12.30;99.90;;;;;;5052320;28;20103;-84
2022/04/21 08:05:19;;;;;;;0.20;0.20;;;12.30;99.90;;;;;;5053441;28;20141;-80
2022/04/21 08:07:46;;;;;;;0.10;0.10;;;12.40;99.90;;;;;;5108923;28;20037;-82
2022/04/21 08:10:14;;;;;;;0.10;0.10;;;12.50;99.90;;;;;;5092075;28;20552;-82
2022/04/21 08:12:46;;;;;;;0.10;0.10;;;12.60;99.90;;;;;;5091769;28;20526;-80
2022/04/21 08:15:27;;;;;;;0.10;0.10;;;12.70;99.90;;;;;;5075775;28;20058;-84
2022/04/21 08:18:00;;;;;;;0.10;0.10;;;12.80;99.90;;;;;;5108398;28;20606;-81
2022/04/21 08:20:29;;;;;;;0.10;0.10;;;13.00;99.90;;;;;;5108209;28;20132;-80
2022/04/21 08:22:57;;;;;;;0.20;0.10;;;13.10;99.90;;;;;;5092117;28;20040;-83
2022/04/21 08:33:39;;;;;;;0.10;0.10;;;13.30;99.90;;;;;;5093845;28;20611;-82
2022/04/21 08:36:08;;;;;;;0.10;0.10;;;13.40;99.90;;;;;;5091679;28;20052;-83
2022/04/21 08:38:34;;;;;;;0.10;0.10;;;13.60;99.90;;;;;;5107935;28;20390;-81
2022/04/21 08:41:06;;;;;;;0.20;0.10;;;13.70;99.90;;;;;;5058145;28;20064;-81
2022/04/21 08:43:34;;;;;;;0.00;0.00;;;13.90;99.90;;;;;;5075040;28;20041;-82
2022/04/21 08:46:03;;;;;;;0.10;0.10;;;14.00;99.90;;;;;;5058654;28;20041;-84
2022/04/21 08:48:31;;;;;;;0.10;0.10;;;14.00;99.90;;;;;;5090943;28;20507;-80
2022/04/21 08:50:58;;;;;;;0.00;0.00;;;14.20;99.90;;;;;;5108514;28;20130;-79
2022/04/21 08:53:25;;;;;;;0.10;0.10;;;14.20;99.90;;;;;;5091701;28;20051;-84
2022/04/21 08:55:52;;;;;;;0.40;0.20;;;14.40;99.90;;;;;;5074518;28;20041;-78
2022/04/21 08:58:20;;;;;;;0.10;0.10;;;14.60;99.90;;;;;;5074889;28;20037;-78
2022/04/21 09:00:47;;;;;;;0.08;0.08;;;14.70;99.90;;;;;;5073995;28;20036;-82
2022/04/21 09:03:15;;;;;;;0.10;0.10;;;14.70;99.30;;;;;;5091658;28;20040;-83
2022/04/21 09:05:44;;;;;;;0.10;0.10;;;14.70;99.90;;;;;;5074572;28;20036;-82
2022/04/21 09:08:22;;;;;;;0.10;0.10;;;14.80;99.90;;;;;;5071059;28;20845;-81
2022/04/21 09:11:09;;;;;;;0.00;0.00;;;14.90;99.50;;;;;;5087498;28;20520;-80
2022/04/21 09:13:40;;;;;;;0.00;0.00;;;15.00;98.20;;;;;;5070681;28;20094;-83
2022/04/21 09:16:09;;;;;;;0.05;0.05;;;14.90;98.10;;;;;;5087161;28;20409;-83
2022/04/21 09:18:43;;;;;;;0.08;0.08;;;15.00;99.00;;;;;;5098157;28;20037;-82
2022/04/21 09:21:14;;;;;;;0.00;0.00;;;15.00;98.20;;;;;;5090722;28;20105;-83
2022/04/21 09:23:42;;;;;;;0.10;0.10;;;15.00;98.30;;;;;;5090674;28;20044;-81
2022/04/21 09:26:12;;;;;;;0.10;0.10;;;15.00;98.40;;;;;;5090585;28;20090;-81
2022/04/21 09:28:39;;;;;;;0.00;0.00;;;15.00;98.80;;;;;;5090276;28;20058;-81
2022/04/21 09:31:07;;;;;;;0.10;0.10;;;15.10;97.80;;;;;;5090746;28;20131;-81
2022/04/21 09:33:36;;;;;;;0.08;0.08;;;15.20;97.60;;;;;;5090022;28;20051;-83
2022/04/21 09:36:05;;;;;;;0.22;0.15;;;15.30;97.70;;;;;;5074313;28;20045;-81
2022/04/21 09:38:34;;;;;;;0.00;0.00;;;15.30;97.40;;;;;;5090881;28;20037;-83
2022/04/21 09:41:08;;;;;;;0.17;0.17;;;15.40;97.90;;;;;;5073910;28;20051;-81
2022/04/21 09:43:37;;;;;;;0.00;0.00;;;15.40;97.50;;;;;;5090330;28;20127;-81
2022/04/21 09:46:15;;;;;;;0.10;0.10;;;15.60;97.30;;;;;;5090090;28;20080;-82
2022/04/21 09:48:43;;;;;;;0.00;0.00;;;15.50;96.20;;;;;;5090194;28;20490;-81
2022/04/21 09:51:15;;;;;;;0.00;0.00;;;15.50;96.20;;;;;;5074222;28;20113;-81
2022/04/21 09:54:00;;;;;;;0.00;0.00;;;15.40;95.70;;;;;;5090720;28;20059;-82
2022/04/21 09:56:37;;;;;;;0.10;0.10;;;15.50;96.00;;;;;;5089978;28;20044;-83
2022/04/21 09:59:07;;;;;;;0.00;0.00;;;15.50;95.60;;;;;;5106797;28;20091;-81
2022/04/21 10:01:36;;;;;;;0.00;0.00;;;15.70;95.40;;;;;;5090550;28;20052;-82
2022/04/21 10:04:06;;;;;;;0.00;0.00;;;15.70;95.50;;;;;;5073500;28;20508;-81
2022/04/21 10:06:35;;;;;;;0.00;0.00;;;16.00;95.90;;;;;;5073403;28;20071;-83
2022/04/21 10:09:02;;;;;;;0.10;0.10;;;16.10;95.00;;;;;;5089631;28;20074;-81
2022/04/21 10:11:29;;;;;;;0.00;0.00;;;16.00;94.00;;;;;;5073301;28;20068;-81
2022/04/21 10:13:57;;;;;;;0.10;0.10;;;16.10;94.00;;;;;;5089218;28;20044;-83
2022/04/21 10:16:30;;;;;;;0.05;0.03;;;16.20;95.10;;;;;;5073344;28;20052;-81
2022/04/21 10:18:59;;;;;;;0.00;0.00;;;16.30;93.60;;;;;;5073715;28;20093;-83
2022/04/21 10:21:36;;;;;;;0.52;0.30;;;16.30;93.90;;;;;;5073015;28;20705;-83
2022/04/21 10:24:04;;;;;;;0.10;0.10;;;16.20;94.10;;;;;;5089715;28;20517;-83
2022/04/21 10:26:39;;;;;;;0.00;0.00;;;16.20;93.30;;;;;;5089951;28;20075;-83
2022/04/21 10:29:14;;;;;;;0.00;0.00;;;16.30;94.50;;;;;;5073196;28;20044;-83
2022/04/21 10:32:03;;;;;;;0.17;0.10;;;16.40;93.50;;;;;;5089571;28;20040;-81
2022/04/21 10:34:34;;;;;;;0.00;0.00;;;16.50;94.10;;;;;;5089183;28;20116;-81
2022/04/21 10:37:09;;;;;;;0.10;0.03;;;16.60;92.40;;;;;;5102845;28;20044;-82
2022/04/21 10:39:37;;;;;;;0.28;0.22;;;16.40;91.40;;;;;;5086100;28;20052;-83
2022/04/21 10:42:16;;;;;;;0.00;0.00;;;16.30;92.60;;;;;;5068748;28;20529;-81
2022/04/21 10:44:53;;;;;;;0.15;0.10;;;16.20;91.90;;;;;;5085608;28;20052;-83
2022/04/21 10:47:30;;;;;;;0.00;0.00;;;16.20;93.20;;;;;;5073368;28;20459;-83
2022/04/21 10:49:59;;;;;;;0.20;0.20;;;16.30;92.60;;;;;;5105936;28;20033;-81
2022/04/21 10:57:50;;;;;;;0.10;0.10;;;16.70;93.00;;;;;;5122642;28;20131;-82
2022/04/21 11:00:27;;;;;;;0.00;0.00;;;16.70;91.70;;;;;;5089394;28;20041;-83
2022/04/21 11:03:08;;;;;;;0.00;0.00;;;16.70;91.80;;;;;;5073001;28;20072;-83
2022/04/21 11:05:39;;;;;;;0.10;0.10;;;16.50;90.60;;;;;;5089430;28;20035;-81
2022/04/21 11:08:18;;;;;;;0.10;0.10;;;16.50;92.70;;;;;;5088778;28;20032;-83
2022/04/21 11:10:45;;;;;;;0.10;0.10;;;16.60;92.60;;;;;;5088934;28;20500;-83
2022/04/21 11:13:14;;;;;;;0.00;0.00;;;16.60;92.00;;;;;;5089561;28;20041;-84
2022/04/21 11:15:53;;;;;;;0.38;0.20;;;16.60;92.50;;;;;;5089148;28;20041;-81
2022/04/21 11:18:29;;;;;;;0.10;0.10;;;16.50;92.20;;;;;;5089585;28;20043;-81
2022/04/21 11:21:22;;;;;;;0.35;0.20;;;16.30;92.00;;;;;;5088896;28;20080;-83
2022/04/21 11:23:49;;;;;;;0.30;0.20;;;16.10;92.30;;;;;;5089075;28;20032;-81
2022/04/21 11:26:16;;;;;;;0.20;0.10;;;16.00;92.80;;;;;;5088948;28;20082;-85
2022/04/21 11:28:44;;;;;;;0.15;0.08;;;15.80;92.80;;;;;;5072433;28;20048;-81
2022/04/21 11:31:11;;;;;;;0.00;0.00;;;15.90;93.00;;;;;;5105368;28;20585;-82
2022/04/21 11:33:44;;;;;;;0.28;0.20;;;16.10;93.30;;;;;;5072829;28;20086;-81
2022/04/21 11:36:14;;;;;;;0.00;0.00;;;16.10;93.70;;;;;;5105686;28;20087;-83
2022/04/21 11:38:42;;;;;;;0.03;0.03;;;16.10;92.90;;;;;;5096361;28;20119;-81
2022/04/21 11:41:12;;;;;;;0.03;0.03;;;16.30;92.90;;;;;;5091229;28;20045;-81
2022/04/21 11:43:49;;;;;;;0.15;0.10;;;16.40;93.30;;;;;;5109610;28;20071;-83
2022/04/21 11:46:19;;;;;;;0.00;0.00;;;16.60;92.80;;;;;;5075924;28;20049;-81
2022/04/21 11:48:46;;;;;;;0.10;0.03;;;16.60;92.20;;;;;;5092513;28;20098;-83
2022/04/21 11:51:27;;;;;;;0.35;0.22;;;16.60;92.20;;;;;;5092243;28;20036;-83
2022/04/21 11:54:09;;;;;;;2.13;0.20;;;16.60;92.50;;;;;;5093056;28;20040;-81
2022/04/21 11:56:38;;;;;;;0.25;0.20;;;16.70;92.60;;;;;;5088892;28;20405;-82
2022/04/21 11:59:06;;;;;;;0.43;0.17;;;16.80;92.60;;;;;;5089842;28;20079;-81
2022/04/21 12:07:09;;;;;;;0.10;0.10;;;17.30;90.40;;;;;;5097250;28;20120;-82
2022/04/21 12:09:40;;;;;;;0.25;0.20;;;17.40;90.40;;;;;;5083646;28;20424;-81
2022/04/21 12:12:08;;;;;;;0.10;0.10;;;17.50;90.30;;;;;;5105082;28;20048;-81
2022/04/21 12:14:39;;;;;;;0.00;0.00;;;17.50;88.40;;;;;;5092411;28;20186;-83
2022/04/21 12:17:06;;;;;;;0.20;0.20;;;17.50;88.30;;;;;;5091716;28;20131;-83
2022/04/21 12:19:33;;;;;;;0.30;0.20;;;17.50;88.20;;;;;;5092279;28;20063;-83
2022/04/21 12:22:09;;;;;;;0.20;0.15;;;17.50;87.70;;;;;;5108252;28;20120;-83
2022/04/21 12:24:43;;;;;;;0.10;0.10;;;17.60;88.90;;;;;;5091909;28;20174;-83
2022/04/21 12:27:14;;;;;;;0.47;0.20;;;17.60;88.40;;;;;;5091582;28;20086;-83
2022/04/21 12:30:03;;;;;;;0.10;0.10;;;17.60;87.00;;;;;;5091917;28;20386;-81
2022/04/21 12:32:41;;;;;;;0.10;0.10;;;17.40;85.90;;;;;;5091885;28;20039;-83
2022/04/21 12:35:10;;;;;;;0.13;0.10;;;17.40;86.60;;;;;;5108646;28;20040;-81
2022/04/21 12:37:40;;;;;;;0.47;0.32;;;17.40;87.60;;;;;;5091689;28;20124;-81
2022/04/21 12:40:12;;;;;;;0.10;0.10;;;17.20;89.30;;;;;;5091383;28;20033;-81
2022/04/21 12:42:43;;;;;;;0.28;0.17;;;17.20;89.50;;;;;;5091219;28;20087;-83
2022/04/21 12:45:11;;;;;;;0.00;0.00;;;17.10;88.10;;;;;;5084196;28;20035;-82
2022/04/21 12:47:48;;;;;;;0.88;0.30;;;17.20;88.40;;;;;;5134492;28;20125;-80
2022/04/21 12:50:22;;;;;;;0.93;0.50;;;17.20;88.20;;;;;;5106158;28;20044;-83
2022/04/21 12:52:54;;;;;;;0.10;0.10;;;17.20;87.80;;;;;;5111035;28;20519;-81
2022/04/21 12:55:21;;;;;;;0.20;0.20;;;17.20;90.00;;;;;;5101757;28;20036;-82
2022/04/21 12:57:59;;;;;;;0.77;0.25;;;17.20;88.50;;;;;;5109069;28;20055;-83
2022/04/21 13:00:27;;;;;;;0.35;0.35;;;17.20;89.20;;;;;;5090466;28;20159;-82
2022/04/21 13:02:53;;;;;;;0.17;0.17;;;17.10;89.80;;;;;;5097451;28;20040;-83
2022/04/21 13:05:20;;;;;;;0.25;0.10;;;17.10;89.80;;;;;;5089560;28;20040;-83
2022/04/21 13:07:47;;;;;;;0.40;0.38;;;17.10;89.90;;;;;;5079988;28;20115;-83
2022/04/21 13:10:14;;;;;;;0.20;0.20;;;17.10;88.70;;;;;;5070303;28;20097;-84
2022/04/21 13:12:41;;;;;;;0.10;0.10;;;17.10;89.10;;;;;;5076520;28;20044;-83
2022/04/21 13:15:08;;;;;;;0.57;0.30;;;17.00;88.90;;;;;;5073536;28;20052;-83
2022/04/21 13:17:35;;;;;;;0.60;0.50;;;17.00;89.20;;;;;;5074002;28;20132;-81
2022/04/21 13:20:01;;;;;;;0.20;0.20;;;16.90;88.80;;;;;;5073167;28;20227;-81
2022/04/21 13:22:28;;;;;;;0.30;0.30;;;17.00;90.00;;;;;;5074409;28;20044;-81
2022/04/21 13:24:54;;;;;;;1.35;0.35;;;17.10;90.50;;;;;;5070355;28;20405;-82
2022/04/21 13:27:23;;;;;;;0.57;0.20;;;17.10;88.70;;;;;;5086693;28;20047;-81
2022/04/21 13:29:50;;;;;;;0.63;0.50;;;17.10;90.20;;;;;;5083787;28;20074;-84
2022/04/21 13:35:01;;;;;;;0.30;0.20;;;17.00;89.70;;;;;;5109441;28;20048;-80
2022/04/21 13:37:28;;;;;;;0.10;0.10;;;17.00;89.90;;;;;;5093912;28;20499;-83
2022/04/21 13:39:55;;;;;;;0.10;0.10;;;17.10;90.10;;;;;;5093743;28;20040;-84
2022/04/21 13:42:22;;;;;;;0.30;0.28;;;17.10;89.50;;;;;;5092844;28;20056;-83
2022/04/21 13:44:49;;;;;;;0.47;0.22;;;17.10;90.10;;;;;;5103929;28;20041;-83
2022/04/21 13:47:15;;;;;;;1.42;0.65;;;17.10;90.00;;;;;;5106417;28;20036;-82
2022/04/21 13:49:43;;;;;;;0.10;0.10;;;17.10;90.60;;;;;;5073158;28;20041;-83
2022/04/21 13:52:11;;;;;;;0.43;0.22;;;17.10;90.70;;;;;;5123536;28;20052;-81
2022/04/21 13:54:39;;;;;;;0.20;0.10;;;17.10;90.30;;;;;;5089721;28;20119;-83
2022/04/21 13:57:06;;;;;;;0.57;0.30;;;17.10;90.50;;;;;;5073208;28;20481;-83
2022/04/21 13:59:32;;;;;;;0.40;0.32;;;17.10;90.50;;;;;;5056724;28;20047;-84